sensor_id;sensor_type;location;lat;lon;timestamp;P1;durP1;ratioP1;P2;durP2;ratioP2
48789;SDS011;41718;51.980;5.734;2022-10-16T00:02:01;13.30;;;3.95;;
48789;SDS011;41718;51.980;5.734;2022-10-16T00:07:03;12.55;;;5.07;;
48789;SDS011;41718;51.980;5.734;2022-10-16T00:12:04;7.30;;;3.70;;
48789;SDS011;41718;51.980;5.734;2022-10-16T00:17:07;8.00;;;3.85;;
48789;SDS011;41718;51.980;5.734;2022-10-16T00:22:09;5.13;;;3.92;;
48789;SDS011;41718;51.980;5.734;2022-10-16T00:27:10;6.43;;;3.60;;
48789;SDS011;41718;51.980;5.734;2022-10-16T00:32:12;8.65;;;3.85;;
48789;SDS011;41718;51.980;5.734;2022-10-16T00:37:13;10.98;;;4.60;;
48789;SDS011;41718;51.980;5.734;2022-10-16T00:42:16;9.27;;;5.10;;
48789;SDS011;41718;51.980;5.734;2022-10-16T00:47:20;8.57;;;4.53;;
48789;SDS011;41718;51.980;5.734;2022-10-16T00:52:28;8.95;;;4.05;;
48789;SDS011;41718;51.980;5.734;2022-10-16T00:57:31;9.10;;;4.47;;
48789;SDS011;41718;51.980;5.734;2022-10-16T01:02:32;7.88;;;4.88;;
48789;SDS011;41718;51.980;5.734;2022-10-16T01:13:09;10.40;;;5.18;;
48789;SDS011;41718;51.980;5.734;2022-10-16T01:18:14;11.27;;;4.53;;
48789;SDS011;41718;51.980;5.734;2022-10-16T01:28:42;7.68;;;4.53;;
48789;SDS011;41718;51.980;5.734;2022-10-16T01:33:56;8.80;;;4.82;;
48789;SDS011;41718;51.980;5.734;2022-10-16T01:39:02;15.35;;;4.95;;
48789;SDS011;41718;51.980;5.734;2022-10-16T01:44:05;6.60;;;4.97;;
48789;SDS011;41718;51.980;5.734;2022-10-16T01:49:10;15.50;;;5.70;;
48789;SDS011;41718;51.980;5.734;2022-10-16T01:54:12;5.47;;;4.40;;
48789;SDS011;41718;51.980;5.734;2022-10-16T01:59:17;6.63;;;4.22;;
48789;SDS011;41718;51.980;5.734;2022-10-16T02:04:23;5.32;;;4.35;;
48789;SDS011;41718;51.980;5.734;2022-10-16T02:09:29;7.78;;;4.88;;
48789;SDS011;41718;51.980;5.734;2022-10-16T02:14:34;8.05;;;5.25;;
48789;SDS011;41718;51.980;5.734;2022-10-16T02:19:39;7.50;;;4.50;;
48789;SDS011;41718;51.980;5.734;2022-10-16T02:24:56;6.85;;;4.28;;
48789;SDS011;41718;51.980;5.734;2022-10-16T02:30:07;6.05;;;3.90;;
48789;SDS011;41718;51.980;5.734;2022-10-16T02:35:20;5.78;;;3.70;;
48789;SDS011;41718;51.980;5.734;2022-10-16T02:40:24;7.68;;;4.03;;
48789;SDS011;41718;51.980;5.734;2022-10-16T02:45:27;4.78;;;3.25;;
48789;SDS011;41718;51.980;5.734;2022-10-16T02:50:30;5.43;;;4.13;;
48789;SDS011;41718;51.980;5.734;2022-10-16T02:55:31;9.63;;;3.60;;
48789;SDS011;41718;51.980;5.734;2022-10-16T03:00:33;6.18;;;3.30;;
48789;SDS011;41718;51.980;5.734;2022-10-16T03:05:35;4.45;;;3.60;;
48789;SDS011;41718;51.980;5.734;2022-10-16T03:10:36;5.85;;;4.10;;
48789;SDS011;41718;51.980;5.734;2022-10-16T03:15:37;4.20;;;3.80;;
48789;SDS011;41718;51.980;5.734;2022-10-16T03:20:39;6.57;;;3.88;;
48789;SDS011;41718;51.980;5.734;2022-10-16T03:25:41;6.22;;;3.15;;
48789;SDS011;41718;51.980;5.734;2022-10-16T03:30:43;4.28;;;3.63;;
48789;SDS011;41718;51.980;5.734;2022-10-16T03:35:50;4.82;;;3.83;;
48789;SDS011;41718;51.980;5.734;2022-10-16T03:40:52;4.72;;;3.58;;
48789;SDS011;41718;51.980;5.734;2022-10-16T03:45:53;5.25;;;3.97;;
48789;SDS011;41718;51.980;5.734;2022-10-16T03:50:55;6.88;;;4.22;;
48789;SDS011;41718;51.980;5.734;2022-10-16T03:55:57;8.98;;;3.92;;
48789;SDS011;41718;51.980;5.734;2022-10-16T04:00:59;7.13;;;4.40;;
48789;SDS011;41718;51.980;5.734;2022-10-16T04:06:00;7.22;;;3.35;;
48789;SDS011;41718;51.980;5.734;2022-10-16T04:11:02;11.85;;;4.18;;
48789;SDS011;41718;51.980;5.734;2022-10-16T04:16:04;8.43;;;3.20;;
48789;SDS011;41718;51.980;5.734;2022-10-16T04:21:06;8.18;;;3.78;;
48789;SDS011;41718;51.980;5.734;2022-10-16T04:26:11;4.18;;;3.47;;
48789;SDS011;41718;51.980;5.734;2022-10-16T04:31:13;5.43;;;3.40;;
48789;SDS011;41718;51.980;5.734;2022-10-16T04:36:14;4.25;;;3.05;;
48789;SDS011;41718;51.980;5.734;2022-10-16T04:41:16;5.03;;;3.03;;
48789;SDS011;41718;51.980;5.734;2022-10-16T04:46:17;9.65;;;4.05;;
48789;SDS011;41718;51.980;5.734;2022-10-16T04:51:19;4.47;;;3.13;;
48789;SDS011;41718;51.980;5.734;2022-10-16T04:56:20;6.30;;;3.63;;
48789;SDS011;41718;51.980;5.734;2022-10-16T05:01:22;7.40;;;3.88;;
48789;SDS011;41718;51.980;5.734;2022-10-16T05:06:25;8.10;;;3.20;;
48789;SDS011;41718;51.980;5.734;2022-10-16T05:11:27;4.38;;;3.15;;
48789;SDS011;41718;51.980;5.734;2022-10-16T05:16:28;4.40;;;3.42;;
48789;SDS011;41718;51.980;5.734;2022-10-16T05:21:31;5.50;;;3.20;;
48789;SDS011;41718;51.980;5.734;2022-10-16T05:26:33;7.80;;;3.83;;
48789;SDS011;41718;51.980;5.734;2022-10-16T05:31:34;4.35;;;3.45;;
48789;SDS011;41718;51.980;5.734;2022-10-16T05:36:36;3.45;;;3.15;;
48789;SDS011;41718;51.980;5.734;2022-10-16T05:41:44;4.78;;;3.33;;
48789;SDS011;41718;51.980;5.734;2022-10-16T05:46:46;6.65;;;3.97;;
48789;SDS011;41718;51.980;5.734;2022-10-16T05:51:48;5.43;;;3.92;;
48789;SDS011;41718;51.980;5.734;2022-10-16T05:56:49;5.55;;;3.47;;
48789;SDS011;41718;51.980;5.734;2022-10-16T06:01:51;5.45;;;3.20;;
48789;SDS011;41718;51.980;5.734;2022-10-16T06:06:58;3.30;;;2.95;;
48789;SDS011;41718;51.980;5.734;2022-10-16T06:12:01;8.43;;;3.60;;
48789;SDS011;41718;51.980;5.734;2022-10-16T06:17:09;3.47;;;2.90;;
48789;SDS011;41718;51.980;5.734;2022-10-16T06:22:11;5.10;;;3.70;;
48789;SDS011;41718;51.980;5.734;2022-10-16T06:27:15;7.03;;;3.60;;
48789;SDS011;41718;51.980;5.734;2022-10-16T06:32:16;7.05;;;4.05;;
48789;SDS011;41718;51.980;5.734;2022-10-16T06:37:18;7.55;;;3.60;;
48789;SDS011;41718;51.980;5.734;2022-10-16T06:42:20;9.48;;;3.33;;
48789;SDS011;41718;51.980;5.734;2022-10-16T06:47:21;6.85;;;3.70;;
48789;SDS011;41718;51.980;5.734;2022-10-16T06:52:23;5.93;;;3.92;;
48789;SDS011;41718;51.980;5.734;2022-10-16T06:57:25;3.88;;;3.45;;
48789;SDS011;41718;51.980;5.734;2022-10-16T07:02:34;14.07;;;4.10;;
48789;SDS011;41718;51.980;5.734;2022-10-16T07:07:46;4.15;;;3.33;;
48789;SDS011;41718;51.980;5.734;2022-10-16T07:12:53;4.93;;;3.33;;
48789;SDS011;41718;51.980;5.734;2022-10-16T07:17:56;6.90;;;2.85;;
48789;SDS011;41718;51.980;5.734;2022-10-16T07:22:58;5.47;;;2.88;;
48789;SDS011;41718;51.980;5.734;2022-10-16T07:28:00;6.70;;;2.45;;
48789;SDS011;41718;51.980;5.734;2022-10-16T07:33:04;5.38;;;3.13;;
48789;SDS011;41718;51.980;5.734;2022-10-16T07:38:06;4.40;;;3.13;;
48789;SDS011;41718;51.980;5.734;2022-10-16T07:43:09;6.28;;;3.85;;
48789;SDS011;41718;51.980;5.734;2022-10-16T07:48:11;8.05;;;3.75;;
48789;SDS011;41718;51.980;5.734;2022-10-16T07:53:14;5.75;;;4.10;;
48789;SDS011;41718;51.980;5.734;2022-10-16T07:58:16;6.07;;;3.83;;
48789;SDS011;41718;51.980;5.734;2022-10-16T08:03:19;3.63;;;3.00;;
48789;SDS011;41718;51.980;5.734;2022-10-16T08:08:24;5.68;;;3.03;;
48789;SDS011;41718;51.980;5.734;2022-10-16T08:13:25;7.70;;;3.30;;
48789;SDS011;41718;51.980;5.734;2022-10-16T08:18:27;4.15;;;2.65;;
48789;SDS011;41718;51.980;5.734;2022-10-16T08:23:30;3.60;;;2.53;;
48789;SDS011;41718;51.980;5.734;2022-10-16T08:28:42;8.35;;;3.00;;
48789;SDS011;41718;51.980;5.734;2022-10-16T08:33:46;3.13;;;2.30;;
48789;SDS011;41718;51.980;5.734;2022-10-16T08:38:57;4.90;;;2.92;;
48789;SDS011;41718;51.980;5.734;2022-10-16T08:49:11;3.97;;;2.97;;
48789;SDS011;41718;51.980;5.734;2022-10-16T08:59:51;5.37;;;3.60;;
48789;SDS011;41718;51.980;5.734;2022-10-16T09:05:11;4.35;;;2.75;;
48789;SDS011;41718;51.980;5.734;2022-10-16T09:10:55;3.65;;;2.40;;
48789;SDS011;41718;51.980;5.734;2022-10-16T09:16:14;4.20;;;2.33;;
48789;SDS011;41718;51.980;5.734;2022-10-16T09:21:26;9.80;;;2.80;;
48789;SDS011;41718;51.980;5.734;2022-10-16T09:26:37;5.47;;;2.58;;
48789;SDS011;41718;51.980;5.734;2022-10-16T09:31:41;8.80;;;2.65;;
48789;SDS011;41718;51.980;5.734;2022-10-16T09:36:48;4.43;;;2.40;;
48789;SDS011;41718;51.980;5.734;2022-10-16T09:42:00;4.00;;;2.78;;
48789;SDS011;41718;51.980;5.734;2022-10-16T09:47:02;7.25;;;2.38;;
48789;SDS011;41718;51.980;5.734;2022-10-16T09:52:10;7.55;;;3.50;;
48789;SDS011;41718;51.980;5.734;2022-10-16T09:57:14;3.45;;;2.42;;
48789;SDS011;41718;51.980;5.734;2022-10-16T10:02:19;12.00;;;3.33;;
48789;SDS011;41718;51.980;5.734;2022-10-16T10:07:32;10.25;;;3.47;;
48789;SDS011;41718;51.980;5.734;2022-10-16T10:12:39;15.90;;;2.65;;
48789;SDS011;41718;51.980;5.734;2022-10-16T10:17:49;11.70;;;3.10;;
48789;SDS011;41718;51.980;5.734;2022-10-16T10:22:56;5.72;;;2.50;;
48789;SDS011;41718;51.980;5.734;2022-10-16T10:38:45;8.07;;;2.67;;
48789;SDS011;41718;51.980;5.734;2022-10-16T11:05:31;10.38;;;2.90;;
48789;SDS011;41718;51.980;5.734;2022-10-16T11:10:50;8.50;;;2.58;;
48789;SDS011;41718;51.980;5.734;2022-10-16T11:16:01;11.60;;;2.35;;
48789;SDS011;41718;51.980;5.734;2022-10-16T11:21:12;8.65;;;1.83;;
48789;SDS011;41718;51.980;5.734;2022-10-16T11:26:20;8.10;;;2.20;;
48789;SDS011;41718;51.980;5.734;2022-10-16T11:31:36;5.88;;;2.05;;
48789;SDS011;41718;51.980;5.734;2022-10-16T11:36:58;6.32;;;1.70;;
48789;SDS011;41718;51.980;5.734;2022-10-16T11:42:40;10.40;;;1.73;;
48789;SDS011;41718;51.980;5.734;2022-10-16T11:47:53;5.75;;;2.42;;
48789;SDS011;41718;51.980;5.734;2022-10-16T11:53:11;8.50;;;1.92;;
48789;SDS011;41718;51.980;5.734;2022-10-16T12:08:59;6.68;;;1.85;;
48789;SDS011;41718;51.980;5.734;2022-10-16T12:19:22;7.00;;;1.58;;
48789;SDS011;41718;51.980;5.734;2022-10-16T12:24:37;6.65;;;2.65;;
48789;SDS011;41718;51.980;5.734;2022-10-16T12:29:45;9.85;;;2.20;;
48789;SDS011;41718;51.980;5.734;2022-10-16T12:34:56;8.32;;;1.85;;
48789;SDS011;41718;51.980;5.734;2022-10-16T12:40:46;9.70;;;2.35;;
48789;SDS011;41718;51.980;5.734;2022-10-16T12:45:33;4.88;;;1.73;;
48789;SDS011;41718;51.980;5.734;2022-10-16T12:50:39;4.88;;;2.03;;
48789;SDS011;41718;51.980;5.734;2022-10-16T13:01:38;8.77;;;2.25;;
48789;SDS011;41718;51.980;5.734;2022-10-16T13:29:10;4.97;;;1.50;;
48789;SDS011;41718;51.980;5.734;2022-10-16T13:34:14;6.15;;;2.85;;
48789;SDS011;41718;51.980;5.734;2022-10-16T13:39:26;13.63;;;2.42;;
48789;SDS011;41718;51.980;5.734;2022-10-16T13:50:11;12.77;;;2.47;;
48789;SDS011;41718;51.980;5.734;2022-10-16T13:55:16;9.38;;;2.50;;
48789;SDS011;41718;51.980;5.734;2022-10-16T14:00:25;5.22;;;1.80;;
48789;SDS011;41718;51.980;5.734;2022-10-16T14:05:34;6.60;;;2.65;;
48789;SDS011;41718;51.980;5.734;2022-10-16T14:10:37;7.97;;;2.30;;
48789;SDS011;41718;51.980;5.734;2022-10-16T14:15:45;15.70;;;2.67;;
48789;SDS011;41718;51.980;5.734;2022-10-16T14:20:50;6.57;;;3.05;;
48789;SDS011;41718;51.980;5.734;2022-10-16T14:26:11;5.15;;;1.73;;
48789;SDS011;41718;51.980;5.734;2022-10-16T14:36:24;6.68;;;2.00;;
48789;SDS011;41718;51.980;5.734;2022-10-16T14:41:29;7.35;;;1.50;;
48789;SDS011;41718;51.980;5.734;2022-10-16T14:46:36;8.75;;;2.63;;
48789;SDS011;41718;51.980;5.734;2022-10-16T14:51:43;10.23;;;2.25;;
48789;SDS011;41718;51.980;5.734;2022-10-16T15:01:50;5.68;;;1.90;;
48789;SDS011;41718;51.980;5.734;2022-10-16T15:06:57;9.20;;;2.75;;
48789;SDS011;41718;51.980;5.734;2022-10-16T15:12:07;6.28;;;1.80;;
48789;SDS011;41718;51.980;5.734;2022-10-16T15:17:09;3.00;;;1.60;;
48789;SDS011;41718;51.980;5.734;2022-10-16T15:22:15;5.32;;;1.98;;
48789;SDS011;41718;51.980;5.734;2022-10-16T15:27:16;9.10;;;2.78;;
48789;SDS011;41718;51.980;5.734;2022-10-16T15:32:21;12.23;;;3.03;;
48789;SDS011;41718;51.980;5.734;2022-10-16T15:37:25;4.10;;;2.08;;
48789;SDS011;41718;51.980;5.734;2022-10-16T15:42:28;10.75;;;2.47;;
48789;SDS011;41718;51.980;5.734;2022-10-16T15:47:30;7.65;;;2.78;;
48789;SDS011;41718;51.980;5.734;2022-10-16T15:52:41;6.65;;;1.88;;
48789;SDS011;41718;51.980;5.734;2022-10-16T15:57:43;6.85;;;2.83;;
48789;SDS011;41718;51.980;5.734;2022-10-16T16:02:49;10.55;;;4.00;;
48789;SDS011;41718;51.980;5.734;2022-10-16T16:08:05;6.18;;;1.25;;
48789;SDS011;41718;51.980;5.734;2022-10-16T16:13:23;8.85;;;2.00;;
48789;SDS011;41718;51.980;5.734;2022-10-16T16:18:27;5.28;;;2.03;;
48789;SDS011;41718;51.980;5.734;2022-10-16T16:23:34;6.95;;;1.75;;
48789;SDS011;41718;51.980;5.734;2022-10-16T16:28:43;7.80;;;2.22;;
48789;SDS011;41718;51.980;5.734;2022-10-16T16:33:51;6.43;;;1.80;;
48789;SDS011;41718;51.980;5.734;2022-10-16T16:38:54;13.35;;;2.95;;
48789;SDS011;41718;51.980;5.734;2022-10-16T16:44:00;6.55;;;2.60;;
48789;SDS011;41718;51.980;5.734;2022-10-16T16:49:12;7.30;;;2.72;;
48789;SDS011;41718;51.980;5.734;2022-10-16T16:54:15;11.82;;;2.53;;
48789;SDS011;41718;51.980;5.734;2022-10-16T16:59:18;11.50;;;3.95;;
48789;SDS011;41718;51.980;5.734;2022-10-16T17:04:24;13.10;;;4.70;;
48789;SDS011;41718;51.980;5.734;2022-10-16T17:09:26;13.60;;;6.82;;
48789;SDS011;41718;51.980;5.734;2022-10-16T17:14:29;12.27;;;3.45;;
48789;SDS011;41718;51.980;5.734;2022-10-16T17:19:32;9.95;;;3.30;;
48789;SDS011;41718;51.980;5.734;2022-10-16T17:24:34;8.60;;;3.40;;
48789;SDS011;41718;51.980;5.734;2022-10-16T17:29:38;17.15;;;3.28;;
48789;SDS011;41718;51.980;5.734;2022-10-16T17:34:40;15.63;;;4.28;;
48789;SDS011;41718;51.980;5.734;2022-10-16T17:39:44;8.43;;;3.33;;
48789;SDS011;41718;51.980;5.734;2022-10-16T17:44:52;12.70;;;2.67;;
48789;SDS011;41718;51.980;5.734;2022-10-16T17:49:53;8.32;;;2.88;;
48789;SDS011;41718;51.980;5.734;2022-10-16T17:54:56;9.50;;;2.67;;
48789;SDS011;41718;51.980;5.734;2022-10-16T17:59:59;6.22;;;2.60;;
48789;SDS011;41718;51.980;5.734;2022-10-16T18:05:10;11.00;;;3.13;;
48789;SDS011;41718;51.980;5.734;2022-10-16T18:10:34;9.95;;;4.20;;
48789;SDS011;41718;51.980;5.734;2022-10-16T18:16:08;9.65;;;3.65;;
48789;SDS011;41718;51.980;5.734;2022-10-16T18:22:19;7.53;;;2.80;;
48789;SDS011;41718;51.980;5.734;2022-10-16T18:28:00;10.80;;;3.88;;
48789;SDS011;41718;51.980;5.734;2022-10-16T18:34:19;11.40;;;4.05;;
48789;SDS011;41718;51.980;5.734;2022-10-16T18:39:45;10.73;;;3.33;;
48789;SDS011;41718;51.980;5.734;2022-10-16T18:44:58;15.43;;;3.00;;
48789;SDS011;41718;51.980;5.734;2022-10-16T18:50:09;6.28;;;3.03;;
48789;SDS011;41718;51.980;5.734;2022-10-16T18:55:59;7.95;;;2.90;;
48789;SDS011;41718;51.980;5.734;2022-10-16T19:01:06;12.63;;;3.25;;
48789;SDS011;41718;51.980;5.734;2022-10-16T19:06:35;12.43;;;3.20;;
48789;SDS011;41718;51.980;5.734;2022-10-16T19:11:43;7.45;;;2.92;;
48789;SDS011;41718;51.980;5.734;2022-10-16T19:16:59;7.60;;;4.13;;
48789;SDS011;41718;51.980;5.734;2022-10-16T19:22:15;15.33;;;5.40;;
48789;SDS011;41718;51.980;5.734;2022-10-16T19:27:52;12.27;;;5.57;;
48789;SDS011;41718;51.980;5.734;2022-10-16T19:33:07;14.50;;;3.33;;
48789;SDS011;41718;51.980;5.734;2022-10-16T19:38:18;10.95;;;4.10;;
48789;SDS011;41718;51.980;5.734;2022-10-16T19:43:21;12.70;;;4.93;;
48789;SDS011;41718;51.980;5.734;2022-10-16T19:48:23;12.95;;;5.07;;
48789;SDS011;41718;51.980;5.734;2022-10-16T19:53:31;10.95;;;4.75;;
48789;SDS011;41718;51.980;5.734;2022-10-16T19:58:42;6.30;;;2.38;;
48789;SDS011;41718;51.980;5.734;2022-10-16T20:03:45;11.98;;;4.72;;
48789;SDS011;41718;51.980;5.734;2022-10-16T20:08:49;11.95;;;6.28;;
48789;SDS011;41718;51.980;5.734;2022-10-16T20:19:23;15.32;;;7.60;;
48789;SDS011;41718;51.980;5.734;2022-10-16T20:24:29;15.57;;;8.60;;
48789;SDS011;41718;51.980;5.734;2022-10-16T20:29:34;21.67;;;9.77;;
48789;SDS011;41718;51.980;5.734;2022-10-16T20:34:35;13.77;;;8.10;;
48789;SDS011;41718;51.980;5.734;2022-10-16T20:39:37;19.35;;;9.35;;
48789;SDS011;41718;51.980;5.734;2022-10-16T20:44:38;14.63;;;8.18;;
48789;SDS011;41718;51.980;5.734;2022-10-16T20:49:40;12.27;;;9.25;;
48789;SDS011;41718;51.980;5.734;2022-10-16T20:54:45;10.98;;;8.93;;
48789;SDS011;41718;51.980;5.734;2022-10-16T20:59:47;13.02;;;9.45;;
48789;SDS011;41718;51.980;5.734;2022-10-16T21:04:49;15.18;;;8.25;;
48789;SDS011;41718;51.980;5.734;2022-10-16T21:09:53;16.45;;;9.90;;
48789;SDS011;41718;51.980;5.734;2022-10-16T21:14:55;16.50;;;11.23;;
48789;SDS011;41718;51.980;5.734;2022-10-16T21:20:14;17.90;;;12.07;;
48789;SDS011;41718;51.980;5.734;2022-10-16T21:25:16;13.02;;;8.90;;
48789;SDS011;41718;51.980;5.734;2022-10-16T21:30:20;12.48;;;7.55;;
48789;SDS011;41718;51.980;5.734;2022-10-16T21:35:22;10.52;;;5.70;;
48789;SDS011;41718;51.980;5.734;2022-10-16T21:40:28;8.68;;;5.10;;
48789;SDS011;41718;51.980;5.734;2022-10-16T21:45:31;20.92;;;6.43;;
48789;SDS011;41718;51.980;5.734;2022-10-16T21:50:34;9.10;;;4.70;;
48789;SDS011;41718;51.980;5.734;2022-10-16T21:55:44;11.30;;;4.88;;
48789;SDS011;41718;51.980;5.734;2022-10-16T22:00:51;8.82;;;5.43;;
48789;SDS011;41718;51.980;5.734;2022-10-16T22:06:04;9.82;;;5.85;;
48789;SDS011;41718;51.980;5.734;2022-10-16T22:16:14;7.05;;;5.65;;
48789;SDS011;41718;51.980;5.734;2022-10-16T22:21:19;10.02;;;5.03;;
48789;SDS011;41718;51.980;5.734;2022-10-16T22:26:21;8.13;;;6.30;;
48789;SDS011;41718;51.980;5.734;2022-10-16T22:31:26;7.63;;;6.13;;
48789;SDS011;41718;51.980;5.734;2022-10-16T22:36:29;7.70;;;6.00;;
48789;SDS011;41718;51.980;5.734;2022-10-16T22:41:34;8.68;;;6.35;;
48789;SDS011;41718;51.980;5.734;2022-10-16T22:46:39;8.90;;;7.47;;
48789;SDS011;41718;51.980;5.734;2022-10-16T22:51:43;9.02;;;7.80;;
48789;SDS011;41718;51.980;5.734;2022-10-16T22:56:54;14.40;;;8.20;;
48789;SDS011;41718;51.980;5.734;2022-10-16T23:01:59;13.75;;;7.97;;
48789;SDS011;41718;51.980;5.734;2022-10-16T23:07:01;13.25;;;8.57;;
48789;SDS011;41718;51.980;5.734;2022-10-16T23:12:02;21.13;;;10.07;;
48789;SDS011;41718;51.980;5.734;2022-10-16T23:17:04;14.30;;;10.15;;
48789;SDS011;41718;51.980;5.734;2022-10-16T23:22:09;13.98;;;10.30;;
48789;SDS011;41718;51.980;5.734;2022-10-16T23:27:10;21.23;;;10.93;;
48789;SDS011;41718;51.980;5.734;2022-10-16T23:32:12;13.35;;;9.50;;
48789;SDS011;41718;51.980;5.734;2022-10-16T23:37:13;13.30;;;9.57;;
48789;SDS011;41718;51.980;5.734;2022-10-16T23:42:15;13.00;;;9.75;;
48789;SDS011;41718;51.980;5.734;2022-10-16T23:47:16;19.65;;;10.60;;
48789;SDS011;41718;51.980;5.734;2022-10-16T23:52:18;16.10;;;10.10;;
48789;SDS011;41718;51.980;5.734;2022-10-16T23:57:22;14.15;;;9.68;;
